sensor_id;sensor_type;location;lat;lon;timestamp;P1;durP1;ratioP1;P2;durP2;ratioP2
25341;SDS011;13298;48.792;9.154;2023-10-09T00:01:17;16.98;;;3.95;;
25341;SDS011;13298;48.792;9.154;2023-10-09T00:03:43;14.30;;;3.78;;
25341;SDS011;13298;48.792;9.154;2023-10-09T00:06:10;13.07;;;3.85;;
25341;SDS011;13298;48.792;9.154;2023-10-09T00:08:39;14.35;;;3.72;;
25341;SDS011;13298;48.792;9.154;2023-10-09T00:11:09;15.55;;;3.97;;
25341;SDS011;13298;48.792;9.154;2023-10-09T00:13:42;13.05;;;3.88;;
25341;SDS011;13298;48.792;9.154;2023-10-09T00:16:16;13.57;;;3.75;;
25341;SDS011;13298;48.792;9.154;2023-10-09T00:19:09;15.60;;;3.95;;
25341;SDS011;13298;48.792;9.154;2023-10-09T00:21:45;16.80;;;3.90;;
25341;SDS011;13298;48.792;9.154;2023-10-09T00:24:13;14.80;;;4.45;;
25341;SDS011;13298;48.792;9.154;2023-10-09T00:26:45;19.58;;;4.03;;
25341;SDS011;13298;48.792;9.154;2023-10-09T00:29:13;18.27;;;3.50;;
25341;SDS011;13298;48.792;9.154;2023-10-09T00:31:55;10.02;;;3.58;;
25341;SDS011;13298;48.792;9.154;2023-10-09T00:34:40;11.95;;;3.83;;
25341;SDS011;13298;48.792;9.154;2023-10-09T00:37:09;16.35;;;3.95;;
25341;SDS011;13298;48.792;9.154;2023-10-09T00:39:41;13.68;;;3.38;;
25341;SDS011;13298;48.792;9.154;2023-10-09T00:42:12;12.35;;;3.63;;
25341;SDS011;13298;48.792;9.154;2023-10-09T00:44:39;15.63;;;4.05;;
25341;SDS011;13298;48.792;9.154;2023-10-09T00:47:07;16.00;;;3.92;;
25341;SDS011;13298;48.792;9.154;2023-10-09T00:49:51;17.10;;;3.65;;
25341;SDS011;13298;48.792;9.154;2023-10-09T00:52:29;17.35;;;3.90;;
25341;SDS011;13298;48.792;9.154;2023-10-09T00:55:14;14.80;;;3.92;;
25341;SDS011;13298;48.792;9.154;2023-10-09T00:57:46;14.70;;;3.95;;
25341;SDS011;13298;48.792;9.154;2023-10-09T01:00:17;15.10;;;4.10;;
25341;SDS011;13298;48.792;9.154;2023-10-09T01:03:00;16.02;;;4.28;;
25341;SDS011;13298;48.792;9.154;2023-10-09T01:05:44;12.30;;;4.07;;
25341;SDS011;13298;48.792;9.154;2023-10-09T01:08:41;17.15;;;3.92;;
25341;SDS011;13298;48.792;9.154;2023-10-09T01:11:08;17.67;;;4.35;;
25341;SDS011;13298;48.792;9.154;2023-10-09T01:13:55;26.90;;;4.25;;
25341;SDS011;13298;48.792;9.154;2023-10-09T01:16:33;19.55;;;4.35;;
25341;SDS011;13298;48.792;9.154;2023-10-09T01:18:59;18.48;;;3.90;;
25341;SDS011;13298;48.792;9.154;2023-10-09T01:21:25;13.13;;;3.28;;
25341;SDS011;13298;48.792;9.154;2023-10-09T01:23:54;15.73;;;4.55;;
25341;SDS011;13298;48.792;9.154;2023-10-09T01:26:33;12.93;;;3.35;;
25341;SDS011;13298;48.792;9.154;2023-10-09T01:29:18;18.38;;;3.95;;
25341;SDS011;13298;48.792;9.154;2023-10-09T01:34:16;19.10;;;4.18;;
25341;SDS011;13298;48.792;9.154;2023-10-09T01:36:50;18.20;;;4.15;;
25341;SDS011;13298;48.792;9.154;2023-10-09T01:39:20;19.20;;;4.07;;
25341;SDS011;13298;48.792;9.154;2023-10-09T01:41:49;15.38;;;3.80;;
25341;SDS011;13298;48.792;9.154;2023-10-09T01:44:22;12.88;;;3.67;;
25341;SDS011;13298;48.792;9.154;2023-10-09T01:46:51;15.43;;;3.50;;
25341;SDS011;13298;48.792;9.154;2023-10-09T01:49:20;11.88;;;3.55;;
25341;SDS011;13298;48.792;9.154;2023-10-09T01:51:55;14.98;;;4.18;;
25341;SDS011;13298;48.792;9.154;2023-10-09T01:54:26;13.68;;;3.22;;
25341;SDS011;13298;48.792;9.154;2023-10-09T01:57:06;16.92;;;3.70;;
25341;SDS011;13298;48.792;9.154;2023-10-09T02:02:15;15.73;;;3.53;;
25341;SDS011;13298;48.792;9.154;2023-10-09T02:07:18;8.90;;;2.88;;
25341;SDS011;13298;48.792;9.154;2023-10-09T02:09:52;10.95;;;3.10;;
25341;SDS011;13298;48.792;9.154;2023-10-09T02:12:19;13.73;;;3.70;;
25341;SDS011;13298;48.792;9.154;2023-10-09T02:14:47;11.93;;;3.25;;
25341;SDS011;13298;48.792;9.154;2023-10-09T02:17:13;12.05;;;3.08;;
25341;SDS011;13298;48.792;9.154;2023-10-09T02:19:45;13.18;;;3.47;;
25341;SDS011;13298;48.792;9.154;2023-10-09T02:22:14;13.38;;;3.22;;
25341;SDS011;13298;48.792;9.154;2023-10-09T02:24:41;14.02;;;3.75;;
25341;SDS011;13298;48.792;9.154;2023-10-09T02:27:29;16.15;;;3.65;;
25341;SDS011;13298;48.792;9.154;2023-10-09T02:30:19;15.85;;;4.05;;
25341;SDS011;13298;48.792;9.154;2023-10-09T02:32:52;13.05;;;3.45;;
25341;SDS011;13298;48.792;9.154;2023-10-09T02:35:24;10.27;;;3.05;;
25341;SDS011;13298;48.792;9.154;2023-10-09T02:38:07;13.02;;;3.60;;
25341;SDS011;13298;48.792;9.154;2023-10-09T02:40:35;7.78;;;3.17;;
25341;SDS011;13298;48.792;9.154;2023-10-09T02:43:27;13.32;;;3.30;;
25341;SDS011;13298;48.792;9.154;2023-10-09T02:46:05;11.20;;;3.30;;
25341;SDS011;13298;48.792;9.154;2023-10-09T02:48:45;17.00;;;3.63;;
25341;SDS011;13298;48.792;9.154;2023-10-09T02:51:20;12.63;;;2.80;;
25341;SDS011;13298;48.792;9.154;2023-10-09T02:53:56;12.02;;;3.38;;
25341;SDS011;13298;48.792;9.154;2023-10-09T02:56:24;15.85;;;3.72;;
25341;SDS011;13298;48.792;9.154;2023-10-09T02:59:03;14.35;;;3.42;;
25341;SDS011;13298;48.792;9.154;2023-10-09T03:01:33;12.32;;;3.30;;
25341;SDS011;13298;48.792;9.154;2023-10-09T03:04:03;9.98;;;3.60;;
25341;SDS011;13298;48.792;9.154;2023-10-09T03:06:30;11.43;;;3.03;;
25341;SDS011;13298;48.792;9.154;2023-10-09T03:08:59;14.35;;;3.92;;
25341;SDS011;13298;48.792;9.154;2023-10-09T03:11:25;10.40;;;2.95;;
25341;SDS011;13298;48.792;9.154;2023-10-09T03:13:57;15.87;;;4.07;;
25341;SDS011;13298;48.792;9.154;2023-10-09T03:16:22;15.68;;;3.28;;
25341;SDS011;13298;48.792;9.154;2023-10-09T03:18:49;14.88;;;3.63;;
25341;SDS011;13298;48.792;9.154;2023-10-09T03:21:17;14.52;;;3.40;;
25341;SDS011;13298;48.792;9.154;2023-10-09T03:23:47;14.27;;;3.65;;
25341;SDS011;13298;48.792;9.154;2023-10-09T03:26:17;14.50;;;3.42;;
25341;SDS011;13298;48.792;9.154;2023-10-09T03:28:47;10.88;;;3.63;;
25341;SDS011;13298;48.792;9.154;2023-10-09T03:31:14;9.95;;;3.47;;
25341;SDS011;13298;48.792;9.154;2023-10-09T03:33:40;18.67;;;3.80;;
25341;SDS011;13298;48.792;9.154;2023-10-09T03:36:06;18.42;;;3.40;;
25341;SDS011;13298;48.792;9.154;2023-10-09T03:38:37;15.48;;;4.28;;
25341;SDS011;13298;48.792;9.154;2023-10-09T03:41:04;15.15;;;3.40;;
25341;SDS011;13298;48.792;9.154;2023-10-09T03:43:34;12.70;;;2.83;;
25341;SDS011;13298;48.792;9.154;2023-10-09T03:46:07;14.38;;;3.60;;
25341;SDS011;13298;48.792;9.154;2023-10-09T03:48:54;11.95;;;2.60;;
25341;SDS011;13298;48.792;9.154;2023-10-09T03:51:22;12.20;;;2.92;;
25341;SDS011;13298;48.792;9.154;2023-10-09T03:53:48;10.90;;;3.10;;
25341;SDS011;13298;48.792;9.154;2023-10-09T03:56:15;13.88;;;3.53;;
25341;SDS011;13298;48.792;9.154;2023-10-09T03:58:43;8.15;;;2.40;;
25341;SDS011;13298;48.792;9.154;2023-10-09T04:01:14;12.48;;;3.10;;
25341;SDS011;13298;48.792;9.154;2023-10-09T04:03:50;14.25;;;3.97;;
25341;SDS011;13298;48.792;9.154;2023-10-09T04:06:25;18.70;;;3.42;;
25341;SDS011;13298;48.792;9.154;2023-10-09T04:08:58;16.60;;;3.65;;
25341;SDS011;13298;48.792;9.154;2023-10-09T04:11:47;13.27;;;3.60;;
25341;SDS011;13298;48.792;9.154;2023-10-09T04:14:37;17.77;;;3.50;;
25341;SDS011;13298;48.792;9.154;2023-10-09T04:17:19;15.73;;;3.87;;
25341;SDS011;13298;48.792;9.154;2023-10-09T04:20:00;12.85;;;3.00;;
25341;SDS011;13298;48.792;9.154;2023-10-09T04:22:43;14.05;;;3.25;;
25341;SDS011;13298;48.792;9.154;2023-10-09T04:27:53;11.18;;;3.28;;
25341;SDS011;13298;48.792;9.154;2023-10-09T04:30:39;16.30;;;3.67;;
25341;SDS011;13298;48.792;9.154;2023-10-09T04:33:10;10.93;;;2.92;;
25341;SDS011;13298;48.792;9.154;2023-10-09T04:36:01;10.27;;;3.50;;
25341;SDS011;13298;48.792;9.154;2023-10-09T04:38:57;13.32;;;3.15;;
25341;SDS011;13298;48.792;9.154;2023-10-09T04:41:29;16.70;;;3.30;;
25341;SDS011;13298;48.792;9.154;2023-10-09T04:44:16;13.43;;;3.40;;
25341;SDS011;13298;48.792;9.154;2023-10-09T04:47:00;11.55;;;3.08;;
25341;SDS011;13298;48.792;9.154;2023-10-09T04:49:38;15.38;;;3.40;;
25341;SDS011;13298;48.792;9.154;2023-10-09T04:52:13;14.68;;;3.05;;
25341;SDS011;13298;48.792;9.154;2023-10-09T04:54:55;14.50;;;3.40;;
25341;SDS011;13298;48.792;9.154;2023-10-09T04:57:36;17.40;;;3.13;;
25341;SDS011;13298;48.792;9.154;2023-10-09T05:00:16;9.80;;;3.20;;
25341;SDS011;13298;48.792;9.154;2023-10-09T05:02:56;14.90;;;3.20;;
25341;SDS011;13298;48.792;9.154;2023-10-09T05:05:28;13.73;;;3.20;;
25341;SDS011;13298;48.792;9.154;2023-10-09T05:08:03;13.35;;;3.40;;
25341;SDS011;13298;48.792;9.154;2023-10-09T05:10:48;15.70;;;3.00;;
25341;SDS011;13298;48.792;9.154;2023-10-09T05:13:33;15.20;;;3.13;;
25341;SDS011;13298;48.792;9.154;2023-10-09T05:18:45;10.70;;;2.90;;
25341;SDS011;13298;48.792;9.154;2023-10-09T05:21:34;10.60;;;2.55;;
25341;SDS011;13298;48.792;9.154;2023-10-09T05:24:09;12.27;;;3.17;;
25341;SDS011;13298;48.792;9.154;2023-10-09T05:26:39;9.73;;;3.22;;
25341;SDS011;13298;48.792;9.154;2023-10-09T05:29:22;15.88;;;3.10;;
25341;SDS011;13298;48.792;9.154;2023-10-09T05:32:45;13.02;;;2.70;;
25341;SDS011;13298;48.792;9.154;2023-10-09T05:35:13;12.02;;;2.65;;
25341;SDS011;13298;48.792;9.154;2023-10-09T05:37:45;12.52;;;3.58;;
25341;SDS011;13298;48.792;9.154;2023-10-09T05:40:11;8.52;;;2.80;;
25341;SDS011;13298;48.792;9.154;2023-10-09T05:42:41;9.23;;;2.83;;
25341;SDS011;13298;48.792;9.154;2023-10-09T05:47:56;10.90;;;2.70;;
25341;SDS011;13298;48.792;9.154;2023-10-09T05:50:42;7.70;;;2.20;;
25341;SDS011;13298;48.792;9.154;2023-10-09T05:53:35;13.55;;;3.33;;
25341;SDS011;13298;48.792;9.154;2023-10-09T05:56:10;15.65;;;3.55;;
25341;SDS011;13298;48.792;9.154;2023-10-09T05:58:55;11.95;;;3.13;;
25341;SDS011;13298;48.792;9.154;2023-10-09T06:01:40;11.07;;;2.65;;
25341;SDS011;13298;48.792;9.154;2023-10-09T06:04:25;14.88;;;3.55;;
25341;SDS011;13298;48.792;9.154;2023-10-09T06:07:09;16.20;;;3.55;;
25341;SDS011;13298;48.792;9.154;2023-10-09T06:09:38;10.45;;;3.00;;
25341;SDS011;13298;48.792;9.154;2023-10-09T06:12:23;16.45;;;3.33;;
25341;SDS011;13298;48.792;9.154;2023-10-09T06:14:57;10.25;;;3.03;;
25341;SDS011;13298;48.792;9.154;2023-10-09T06:17:29;14.82;;;2.90;;
25341;SDS011;13298;48.792;9.154;2023-10-09T06:20:08;16.73;;;3.58;;
25341;SDS011;13298;48.792;9.154;2023-10-09T06:22:55;11.23;;;3.00;;
25341;SDS011;13298;48.792;9.154;2023-10-09T06:25:23;12.00;;;2.95;;
25341;SDS011;13298;48.792;9.154;2023-10-09T06:27:57;15.98;;;3.63;;
25341;SDS011;13298;48.792;9.154;2023-10-09T06:30:23;19.05;;;3.17;;
25341;SDS011;13298;48.792;9.154;2023-10-09T06:32:50;12.50;;;3.13;;
25341;SDS011;13298;48.792;9.154;2023-10-09T06:35:22;14.20;;;2.95;;
25341;SDS011;13298;48.792;9.154;2023-10-09T06:37:58;11.55;;;2.80;;
25341;SDS011;13298;48.792;9.154;2023-10-09T06:43:12;11.65;;;3.53;;
25341;SDS011;13298;48.792;9.154;2023-10-09T06:45:56;16.35;;;3.10;;
25341;SDS011;13298;48.792;9.154;2023-10-09T06:48:26;10.93;;;2.90;;
25341;SDS011;13298;48.792;9.154;2023-10-09T06:51:07;14.90;;;3.42;;
25341;SDS011;13298;48.792;9.154;2023-10-09T06:53:40;11.25;;;3.20;;
25341;SDS011;13298;48.792;9.154;2023-10-09T06:56:20;15.02;;;3.65;;
25341;SDS011;13298;48.792;9.154;2023-10-09T06:59:09;14.48;;;3.00;;
25341;SDS011;13298;48.792;9.154;2023-10-09T07:01:46;11.07;;;2.65;;
25341;SDS011;13298;48.792;9.154;2023-10-09T07:04:32;9.95;;;2.95;;
25341;SDS011;13298;48.792;9.154;2023-10-09T07:07:02;9.10;;;3.00;;
25341;SDS011;13298;48.792;9.154;2023-10-09T07:09:32;8.88;;;2.47;;
25341;SDS011;13298;48.792;9.154;2023-10-09T07:12:08;15.23;;;2.78;;
25341;SDS011;13298;48.792;9.154;2023-10-09T07:14:51;15.32;;;3.25;;
25341;SDS011;13298;48.792;9.154;2023-10-09T07:17:32;9.57;;;3.35;;
25341;SDS011;13298;48.792;9.154;2023-10-09T07:19:57;8.27;;;2.60;;
25341;SDS011;13298;48.792;9.154;2023-10-09T07:22:34;15.85;;;3.60;;
25341;SDS011;13298;48.792;9.154;2023-10-09T07:25:04;12.48;;;3.40;;
25341;SDS011;13298;48.792;9.154;2023-10-09T07:27:52;15.05;;;3.55;;
25341;SDS011;13298;48.792;9.154;2023-10-09T07:30:20;17.88;;;3.63;;
25341;SDS011;13298;48.792;9.154;2023-10-09T07:35:36;18.02;;;3.97;;
25341;SDS011;13298;48.792;9.154;2023-10-09T07:38:20;15.13;;;3.30;;
25341;SDS011;13298;48.792;9.154;2023-10-09T07:40:48;10.52;;;3.13;;
25341;SDS011;13298;48.792;9.154;2023-10-09T07:43:32;12.60;;;3.50;;
25341;SDS011;13298;48.792;9.154;2023-10-09T07:46:08;8.65;;;2.60;;
25341;SDS011;13298;48.792;9.154;2023-10-09T07:48:57;17.60;;;3.80;;
25341;SDS011;13298;48.792;9.154;2023-10-09T07:51:37;16.52;;;3.53;;
25341;SDS011;13298;48.792;9.154;2023-10-09T07:54:08;12.52;;;3.40;;
25341;SDS011;13298;48.792;9.154;2023-10-09T07:56:38;18.15;;;4.63;;
25341;SDS011;13298;48.792;9.154;2023-10-09T07:59:12;15.82;;;3.63;;
25341;SDS011;13298;48.792;9.154;2023-10-09T08:01:42;14.13;;;4.00;;
25341;SDS011;13298;48.792;9.154;2023-10-09T08:04:27;15.68;;;3.40;;
25341;SDS011;13298;48.792;9.154;2023-10-09T08:07:09;15.65;;;3.50;;
25341;SDS011;13298;48.792;9.154;2023-10-09T08:09:51;13.63;;;3.63;;
25341;SDS011;13298;48.792;9.154;2023-10-09T08:12:35;14.18;;;4.68;;
25341;SDS011;13298;48.792;9.154;2023-10-09T08:15:23;17.20;;;3.28;;
25341;SDS011;13298;48.792;9.154;2023-10-09T08:18:08;20.55;;;4.32;;
25341;SDS011;13298;48.792;9.154;2023-10-09T08:20:43;15.75;;;3.40;;
25341;SDS011;13298;48.792;9.154;2023-10-09T08:23:27;36.15;;;4.32;;
25341;SDS011;13298;48.792;9.154;2023-10-09T08:26:13;18.15;;;3.75;;
25341;SDS011;13298;48.792;9.154;2023-10-09T08:28:42;12.45;;;3.00;;
25341;SDS011;13298;48.792;9.154;2023-10-09T08:31:11;14.35;;;3.85;;
25341;SDS011;13298;48.792;9.154;2023-10-09T08:33:59;14.77;;;3.20;;
25341;SDS011;13298;48.792;9.154;2023-10-09T08:36:28;15.05;;;3.25;;
25341;SDS011;13298;48.792;9.154;2023-10-09T08:39:01;19.48;;;3.83;;
25341;SDS011;13298;48.792;9.154;2023-10-09T08:41:40;19.25;;;3.90;;
25341;SDS011;13298;48.792;9.154;2023-10-09T08:44:06;12.55;;;3.30;;
25341;SDS011;13298;48.792;9.154;2023-10-09T08:46:32;29.10;;;4.15;;
25341;SDS011;13298;48.792;9.154;2023-10-09T08:48:59;16.17;;;3.75;;
25341;SDS011;13298;48.792;9.154;2023-10-09T08:51:25;34.35;;;5.00;;
25341;SDS011;13298;48.792;9.154;2023-10-09T08:53:53;13.68;;;3.85;;
25341;SDS011;13298;48.792;9.154;2023-10-09T08:56:20;22.70;;;4.38;;
25341;SDS011;13298;48.792;9.154;2023-10-09T08:58:48;24.50;;;3.90;;
25341;SDS011;13298;48.792;9.154;2023-10-09T09:01:20;22.55;;;4.63;;
25341;SDS011;13298;48.792;9.154;2023-10-09T09:03:47;18.75;;;3.78;;
25341;SDS011;13298;48.792;9.154;2023-10-09T09:06:15;24.80;;;4.35;;
25341;SDS011;13298;48.792;9.154;2023-10-09T09:08:44;20.30;;;3.67;;
25341;SDS011;13298;48.792;9.154;2023-10-09T09:11:12;18.25;;;3.80;;
25341;SDS011;13298;48.792;9.154;2023-10-09T09:13:47;18.27;;;3.80;;
25341;SDS011;13298;48.792;9.154;2023-10-09T09:16:31;15.27;;;3.58;;
25341;SDS011;13298;48.792;9.154;2023-10-09T09:19:03;19.48;;;4.05;;
25341;SDS011;13298;48.792;9.154;2023-10-09T09:21:34;23.02;;;4.65;;
25341;SDS011;13298;48.792;9.154;2023-10-09T09:24:05;19.20;;;3.90;;
25341;SDS011;13298;48.792;9.154;2023-10-09T09:26:52;16.95;;;3.55;;
25341;SDS011;13298;48.792;9.154;2023-10-09T09:29:38;26.35;;;6.03;;
25341;SDS011;13298;48.792;9.154;2023-10-09T09:32:09;28.08;;;4.95;;
25341;SDS011;13298;48.792;9.154;2023-10-09T09:34:50;21.92;;;4.60;;
25341;SDS011;13298;48.792;9.154;2023-10-09T09:37:26;23.75;;;4.25;;
25341;SDS011;13298;48.792;9.154;2023-10-09T09:40:00;20.33;;;4.10;;
25341;SDS011;13298;48.792;9.154;2023-10-09T09:42:40;22.27;;;4.47;;
25341;SDS011;13298;48.792;9.154;2023-10-09T09:45:13;15.02;;;3.65;;
25341;SDS011;13298;48.792;9.154;2023-10-09T09:47:40;18.40;;;4.40;;
25341;SDS011;13298;48.792;9.154;2023-10-09T09:50:17;17.58;;;4.20;;
25341;SDS011;13298;48.792;9.154;2023-10-09T09:52:54;15.88;;;3.95;;
25341;SDS011;13298;48.792;9.154;2023-10-09T09:55:23;21.35;;;4.07;;
25341;SDS011;13298;48.792;9.154;2023-10-09T09:57:56;17.15;;;3.67;;
25341;SDS011;13298;48.792;9.154;2023-10-09T10:00:24;25.70;;;3.83;;
25341;SDS011;13298;48.792;9.154;2023-10-09T10:05:52;17.90;;;4.00;;
25341;SDS011;13298;48.792;9.154;2023-10-09T10:08:22;12.60;;;3.63;;
25341;SDS011;13298;48.792;9.154;2023-10-09T10:10:56;26.08;;;4.45;;
25341;SDS011;13298;48.792;9.154;2023-10-09T10:16:06;21.30;;;3.72;;
25341;SDS011;13298;48.792;9.154;2023-10-09T10:18:52;16.48;;;4.20;;
25341;SDS011;13298;48.792;9.154;2023-10-09T10:21:32;21.42;;;3.70;;
25341;SDS011;13298;48.792;9.154;2023-10-09T10:35:17;19.00;;;3.83;;
25341;SDS011;13298;48.792;9.154;2023-10-09T10:41:12;19.65;;;4.53;;
25341;SDS011;13298;48.792;9.154;2023-10-09T10:43:47;16.88;;;3.60;;
25341;SDS011;13298;48.792;9.154;2023-10-09T10:46:19;19.30;;;3.50;;
25341;SDS011;13298;48.792;9.154;2023-10-09T10:49:07;18.83;;;4.00;;
25341;SDS011;13298;48.792;9.154;2023-10-09T10:51:37;23.95;;;4.20;;
25341;SDS011;13298;48.792;9.154;2023-10-09T10:54:04;11.40;;;3.95;;
25341;SDS011;13298;48.792;9.154;2023-10-09T10:56:52;16.67;;;3.67;;
25341;SDS011;13298;48.792;9.154;2023-10-09T10:59:22;19.08;;;3.88;;
25341;SDS011;13298;48.792;9.154;2023-10-09T11:01:49;16.40;;;3.92;;
25341;SDS011;13298;48.792;9.154;2023-10-09T11:04:23;21.70;;;4.32;;
25341;SDS011;13298;48.792;9.154;2023-10-09T11:06:57;12.32;;;3.60;;
25341;SDS011;13298;48.792;9.154;2023-10-09T11:09:53;14.93;;;3.88;;
25341;SDS011;13298;48.792;9.154;2023-10-09T11:12:30;18.98;;;3.88;;
25341;SDS011;13298;48.792;9.154;2023-10-09T11:15:33;12.07;;;3.33;;
25341;SDS011;13298;48.792;9.154;2023-10-09T11:18:09;10.63;;;3.38;;
25341;SDS011;13298;48.792;9.154;2023-10-09T11:20:53;13.00;;;3.90;;
25341;SDS011;13298;48.792;9.154;2023-10-09T11:23:43;9.80;;;3.33;;
25341;SDS011;13298;48.792;9.154;2023-10-09T11:26:16;13.48;;;4.10;;
25341;SDS011;13298;48.792;9.154;2023-10-09T11:29:05;13.93;;;4.07;;
25341;SDS011;13298;48.792;9.154;2023-10-09T11:32:00;20.20;;;4.22;;
25341;SDS011;13298;48.792;9.154;2023-10-09T11:34:26;14.35;;;3.92;;
25341;SDS011;13298;48.792;9.154;2023-10-09T11:39:55;9.00;;;3.72;;
25341;SDS011;13298;48.792;9.154;2023-10-09T11:42:22;16.67;;;4.43;;
25341;SDS011;13298;48.792;9.154;2023-10-09T11:45:03;18.35;;;3.80;;
25341;SDS011;13298;48.792;9.154;2023-10-09T11:47:48;10.85;;;3.78;;
25341;SDS011;13298;48.792;9.154;2023-10-09T11:53:41;12.35;;;3.70;;
25341;SDS011;13298;48.792;9.154;2023-10-09T11:56:10;7.53;;;3.40;;
25341;SDS011;13298;48.792;9.154;2023-10-09T11:58:41;12.43;;;3.90;;
25341;SDS011;13298;48.792;9.154;2023-10-09T12:01:11;7.22;;;3.80;;
25341;SDS011;13298;48.792;9.154;2023-10-09T12:03:46;11.90;;;4.70;;
25341;SDS011;13298;48.792;9.154;2023-10-09T12:06:14;9.07;;;3.85;;
25341;SDS011;13298;48.792;9.154;2023-10-09T12:08:44;16.45;;;4.25;;
25341;SDS011;13298;48.792;9.154;2023-10-09T12:11:14;9.93;;;4.35;;
25341;SDS011;13298;48.792;9.154;2023-10-09T12:13:47;10.15;;;4.22;;
25341;SDS011;13298;48.792;9.154;2023-10-09T12:16:13;16.40;;;4.40;;
25341;SDS011;13298;48.792;9.154;2023-10-09T12:18:40;9.50;;;4.00;;
25341;SDS011;13298;48.792;9.154;2023-10-09T12:21:07;9.25;;;4.00;;
25341;SDS011;13298;48.792;9.154;2023-10-09T12:23:40;7.97;;;3.63;;
25341;SDS011;13298;48.792;9.154;2023-10-09T12:26:08;6.68;;;3.38;;
25341;SDS011;13298;48.792;9.154;2023-10-09T12:28:39;7.22;;;3.72;;
25341;SDS011;13298;48.792;9.154;2023-10-09T12:31:14;17.65;;;5.10;;
25341;SDS011;13298;48.792;9.154;2023-10-09T12:33:41;10.27;;;4.15;;
25341;SDS011;13298;48.792;9.154;2023-10-09T12:36:13;7.93;;;4.15;;
25341;SDS011;13298;48.792;9.154;2023-10-09T12:38:46;6.63;;;3.50;;
25341;SDS011;13298;48.792;9.154;2023-10-09T12:41:19;15.55;;;4.82;;
25341;SDS011;13298;48.792;9.154;2023-10-09T12:43:45;11.13;;;5.25;;
25341;SDS011;13298;48.792;9.154;2023-10-09T12:46:12;16.08;;;5.03;;
25341;SDS011;13298;48.792;9.154;2023-10-09T12:48:41;8.80;;;4.78;;
25341;SDS011;13298;48.792;9.154;2023-10-09T12:51:11;13.43;;;4.63;;
25341;SDS011;13298;48.792;9.154;2023-10-09T12:53:41;10.57;;;4.88;;
25341;SDS011;13298;48.792;9.154;2023-10-09T12:58:41;7.57;;;3.72;;
25341;SDS011;13298;48.792;9.154;2023-10-09T13:01:17;11.23;;;4.30;;
25341;SDS011;13298;48.792;9.154;2023-10-09T13:03:45;10.43;;;5.13;;
25341;SDS011;13298;48.792;9.154;2023-10-09T13:06:14;10.07;;;5.22;;
25341;SDS011;13298;48.792;9.154;2023-10-09T13:08:40;13.70;;;5.15;;
25341;SDS011;13298;48.792;9.154;2023-10-09T13:11:10;8.80;;;4.78;;
25341;SDS011;13298;48.792;9.154;2023-10-09T13:13:40;8.43;;;4.10;;
25341;SDS011;13298;48.792;9.154;2023-10-09T13:16:11;12.93;;;5.40;;
25341;SDS011;13298;48.792;9.154;2023-10-09T13:23:51;11.35;;;5.80;;
25341;SDS011;13298;48.792;9.154;2023-10-09T13:26:19;16.48;;;5.68;;
25341;SDS011;13298;48.792;9.154;2023-10-09T13:28:54;15.57;;;6.03;;
25341;SDS011;13298;48.792;9.154;2023-10-09T13:31:22;10.97;;;5.30;;
25341;SDS011;13298;48.792;9.154;2023-10-09T13:33:55;14.13;;;6.05;;
25341;SDS011;13298;48.792;9.154;2023-10-09T13:36:24;17.67;;;5.93;;
25341;SDS011;13298;48.792;9.154;2023-10-09T13:38:58;15.07;;;6.00;;
25341;SDS011;13298;48.792;9.154;2023-10-09T13:41:44;12.02;;;6.55;;
25341;SDS011;13298;48.792;9.154;2023-10-09T13:44:11;11.52;;;5.65;;
25341;SDS011;13298;48.792;9.154;2023-10-09T13:46:37;10.68;;;6.22;;
25341;SDS011;13298;48.792;9.154;2023-10-09T13:49:09;11.95;;;5.88;;
25341;SDS011;13298;48.792;9.154;2023-10-09T13:51:39;15.77;;;6.57;;
25341;SDS011;13298;48.792;9.154;2023-10-09T13:54:10;11.07;;;5.63;;
25341;SDS011;13298;48.792;9.154;2023-10-09T13:56:46;11.55;;;5.95;;
25341;SDS011;13298;48.792;9.154;2023-10-09T13:59:17;15.93;;;6.93;;
25341;SDS011;13298;48.792;9.154;2023-10-09T14:01:48;17.08;;;5.95;;
25341;SDS011;13298;48.792;9.154;2023-10-09T14:04:14;14.70;;;6.00;;
25341;SDS011;13298;48.792;9.154;2023-10-09T14:06:44;12.07;;;6.05;;
25341;SDS011;13298;48.792;9.154;2023-10-09T14:09:10;13.40;;;5.50;;
25341;SDS011;13298;48.792;9.154;2023-10-09T14:11:52;12.82;;;5.85;;
25341;SDS011;13298;48.792;9.154;2023-10-09T14:14:39;9.93;;;5.28;;
25341;SDS011;13298;48.792;9.154;2023-10-09T14:17:16;10.45;;;6.22;;
25341;SDS011;13298;48.792;9.154;2023-10-09T14:19:48;15.10;;;5.70;;
25341;SDS011;13298;48.792;9.154;2023-10-09T14:22:22;9.73;;;5.53;;
25341;SDS011;13298;48.792;9.154;2023-10-09T14:24:51;15.35;;;5.97;;
25341;SDS011;13298;48.792;9.154;2023-10-09T14:27:25;11.65;;;5.35;;
25341;SDS011;13298;48.792;9.154;2023-10-09T14:29:54;7.85;;;5.13;;
25341;SDS011;13298;48.792;9.154;2023-10-09T14:32:22;12.27;;;5.97;;
25341;SDS011;13298;48.792;9.154;2023-10-09T14:34:53;14.98;;;5.55;;
25341;SDS011;13298;48.792;9.154;2023-10-09T14:37:25;13.48;;;5.88;;
25341;SDS011;13298;48.792;9.154;2023-10-09T14:39:52;13.40;;;5.95;;
25341;SDS011;13298;48.792;9.154;2023-10-09T14:42:18;11.68;;;6.07;;
25341;SDS011;13298;48.792;9.154;2023-10-09T14:44:47;18.10;;;5.35;;
25341;SDS011;13298;48.792;9.154;2023-10-09T14:47:15;11.48;;;5.70;;
25341;SDS011;13298;48.792;9.154;2023-10-09T14:49:41;14.20;;;5.97;;
25341;SDS011;13298;48.792;9.154;2023-10-09T14:52:11;12.85;;;5.78;;
25341;SDS011;13298;48.792;9.154;2023-10-09T14:54:41;11.77;;;5.63;;
25341;SDS011;13298;48.792;9.154;2023-10-09T14:57:09;10.77;;;5.25;;
25341;SDS011;13298;48.792;9.154;2023-10-09T14:59:36;16.98;;;5.72;;
25341;SDS011;13298;48.792;9.154;2023-10-09T15:02:03;11.45;;;5.32;;
25341;SDS011;13298;48.792;9.154;2023-10-09T15:04:30;10.43;;;5.00;;
25341;SDS011;13298;48.792;9.154;2023-10-09T15:06:56;8.68;;;4.63;;
25341;SDS011;13298;48.792;9.154;2023-10-09T15:09:22;9.02;;;4.63;;
25341;SDS011;13298;48.792;9.154;2023-10-09T15:11:49;10.38;;;5.25;;
25341;SDS011;13298;48.792;9.154;2023-10-09T15:14:16;9.55;;;5.00;;
25341;SDS011;13298;48.792;9.154;2023-10-09T15:16:43;8.27;;;4.43;;
25341;SDS011;13298;48.792;9.154;2023-10-09T15:19:10;12.10;;;5.00;;
25341;SDS011;13298;48.792;9.154;2023-10-09T15:21:37;9.98;;;4.15;;
25341;SDS011;13298;48.792;9.154;2023-10-09T15:24:09;12.60;;;5.10;;
25341;SDS011;13298;48.792;9.154;2023-10-09T15:26:43;7.82;;;5.03;;
25341;SDS011;13298;48.792;9.154;2023-10-09T15:31:48;9.90;;;4.55;;
25341;SDS011;13298;48.792;9.154;2023-10-09T15:34:15;11.50;;;4.85;;
25341;SDS011;13298;48.792;9.154;2023-10-09T15:36:43;7.35;;;4.28;;
25341;SDS011;13298;48.792;9.154;2023-10-09T15:39:12;12.63;;;4.85;;
25341;SDS011;13298;48.792;9.154;2023-10-09T15:41:38;9.38;;;4.22;;
25341;SDS011;13298;48.792;9.154;2023-10-09T15:44:07;16.08;;;4.97;;
25341;SDS011;13298;48.792;9.154;2023-10-09T15:46:33;11.70;;;4.88;;
25341;SDS011;13298;48.792;9.154;2023-10-09T15:48:59;9.52;;;4.65;;
25341;SDS011;13298;48.792;9.154;2023-10-09T15:51:26;10.23;;;4.70;;
25341;SDS011;13298;48.792;9.154;2023-10-09T15:53:53;10.10;;;4.95;;
25341;SDS011;13298;48.792;9.154;2023-10-09T15:56:18;10.25;;;4.80;;
25341;SDS011;13298;48.792;9.154;2023-10-09T15:58:46;10.80;;;5.05;;
25341;SDS011;13298;48.792;9.154;2023-10-09T16:01:15;10.38;;;4.88;;
25341;SDS011;13298;48.792;9.154;2023-10-09T16:03:45;10.48;;;4.95;;
25341;SDS011;13298;48.792;9.154;2023-10-09T16:06:15;8.13;;;4.75;;
25341;SDS011;13298;48.792;9.154;2023-10-09T16:08:43;10.02;;;5.10;;
25341;SDS011;13298;48.792;9.154;2023-10-09T16:11:18;11.57;;;5.10;;
25341;SDS011;13298;48.792;9.154;2023-10-09T16:13:48;10.00;;;5.25;;